Time;durP1;ratioP1;P1;durP2;ratioP2;P2;SDS_P1;SDS_P2;PMS_P1;PMS_P2;Temp;Humidity;BMP_temperature;BMP_pressure;BME280_temperature;BME280_humidity;BME280_pressure;Samples;Min_cycle;Max_cycle;Signal;HPM_P1;HPM_P2
2022/06/05 00:00:29;;;;;;;11.73;7.78;;;;;;;17.29;63.61;101715.50;5015726;28;20108;-83
2022/06/05 00:02:54;;;;;;;11.38;8.07;;;;;;;17.27;64.29;101712.19;4998317;28;20026;-84
2022/06/05 00:05:31;;;;;;;10.48;7.95;;;;;;;17.26;63.62;101705.31;5015907;28;20101;-85
2022/06/05 00:08:11;;;;;;;12.15;7.88;;;;;;;17.27;63.85;101708.75;5015667;28;20026;-85
2022/06/05 00:10:51;;;;;;;11.98;8.07;;;;;;;17.29;63.53;101699.00;4998017;28;20057;-86
2022/06/05 00:13:38;;;;;;;15.77;8.35;;;;;;;17.27;63.71;101701.75;5015861;28;20037;-83
2022/06/05 00:16:04;;;;;;;11.68;8.00;;;;;;;16.80;63.66;101617.50;4997974;28;20068;-86
2022/06/05 00:18:41;;;;;;;12.63;8.23;;;;;;;17.28;63.88;101679.91;5015659;28;20026;-85
2022/06/05 00:21:07;;;;;;;12.70;8.27;;;;;;;17.27;63.73;101675.63;5014027;28;20092;-85
2022/06/05 00:23:36;;;;;;;13.32;8.95;;;;;;;17.29;63.32;101675.50;5015383;28;20026;-82
2022/06/05 00:26:29;;;;;;;12.27;8.23;;;;;;;17.27;63.58;101683.47;5015170;28;20030;-82
2022/06/05 00:28:54;;;;;;;11.73;8.18;;;;;;;17.24;63.68;101673.28;5015315;28;20474;-82
2022/06/05 00:31:37;;;;;;;14.35;8.57;;;;;;;17.23;63.74;101676.00;5015481;28;20103;-86
2022/06/05 00:34:02;;;;;;;13.98;8.52;;;;;;;17.00;63.69;101642.06;5018913;28;20060;-81
2022/06/05 00:37:05;;;;;;;10.93;8.43;;;;;;;17.18;63.72;101673.72;5015274;28;20080;-84
2022/06/05 00:39:45;;;;;;;13.93;8.60;;;;;;;16.96;64.12;101631.97;5015036;28;20113;-81
2022/06/05 00:42:16;;;;;;;12.40;8.50;;;;;;;17.10;64.49;101655.22;5015113;28;20030;-83
2022/06/05 00:44:49;;;;;;;14.43;8.93;;;;;;;16.91;64.52;101633.19;5015072;28;20030;-82
2022/06/05 00:47:18;;;;;;;13.57;8.90;;;;;;;16.95;64.47;101635.53;5029901;23;20501;-82
2022/06/05 00:50:17;;;;;;;12.35;9.05;;;;;;;16.91;64.45;101635.78;5015030;28;20026;-81
2022/06/05 00:52:49;;;;;;;11.60;8.13;;;;;;;16.94;64.77;101644.31;4977079;28;20037;-83
2022/06/05 00:55:15;;;;;;;13.60;8.75;;;;;;;16.91;64.86;101641.00;5014700;28;20041;-84
2022/06/05 00:57:41;;;;;;;12.85;8.55;;;;;;;16.89;64.96;101655.09;5014957;28;20058;-82
2022/06/05 01:00:13;;;;;;;11.98;8.77;;;;;;;16.87;64.71;101639.56;5014732;28;20378;-83
2022/06/05 01:02:41;;;;;;;12.77;8.48;;;;;;;16.85;65.07;101641.47;5014702;28;20064;-85
2022/06/05 01:05:08;;;;;;;14.50;8.68;;;;;;;16.84;65.02;101652.84;5014570;28;20036;-84
2022/06/05 01:07:33;;;;;;;13.18;9.25;;;;;;;16.56;65.09;101603.69;5014384;28;20393;-83
2022/06/05 01:09:59;;;;;;;13.73;9.20;;;;;;;16.58;65.08;101607.00;5014504;28;20033;-84
2022/06/05 01:12:28;;;;;;;13.88;8.80;;;;;;;16.79;65.23;101641.09;4996243;28;20046;-82
2022/06/05 01:15:05;;;;;;;12.82;8.65;;;;;;;16.80;65.14;101640.16;5014396;28;20029;-81
2022/06/05 01:17:40;;;;;;;10.85;8.45;;;;;;;16.59;65.30;101601.69;5014385;28;20397;-81
2022/06/05 01:20:22;;;;;;;11.48;8.82;;;;;;;16.77;64.79;101632.56;5014205;28;20030;-86
2022/06/05 01:22:56;;;;;;;11.32;8.38;;;;;;;16.81;64.92;101631.38;5014484;28;20049;-81
2022/06/05 01:25:47;;;;;;;13.18;8.68;;;;;;;16.83;64.67;101635.53;5014378;28;20381;-81
2022/06/05 01:28:23;;;;;;;15.82;9.32;;;;;;;16.84;64.75;101629.38;5014625;28;20064;-80
2022/06/05 01:31:04;;;;;;;13.45;9.05;;;;;;;16.85;64.66;101625.00;5014121;28;20084;-81
2022/06/05 01:33:31;;;;;;;13.20;8.45;;;;;;;16.85;64.48;101622.38;5014376;28;20382;-82
2022/06/05 01:36:15;;;;;;;11.82;9.02;;;;;;;16.86;64.41;101629.25;5014270;28;20029;-84
2022/06/05 01:38:43;;;;;;;12.88;8.63;;;;;;;16.85;64.47;101631.03;5014303;28;20482;-83
2022/06/05 01:41:15;;;;;;;12.18;8.57;;;;;;;16.79;64.57;101618.44;5013860;28;20033;-83
2022/06/05 01:43:47;;;;;;;15.32;8.85;;;;;;;16.72;64.28;101634.72;5014300;28;20032;-86
2022/06/05 01:46:22;;;;;;;11.07;8.07;;;;;;;16.84;63.86;101663.28;4996382;28;20124;-82
2022/06/05 01:48:51;;;;;;;12.25;8.30;;;;;;;16.95;63.97;101661.63;5014013;28;20025;-86
2022/06/05 01:51:23;;;;;;;12.90;8.20;;;;;;;16.98;63.45;101677.88;5013500;28;20390;-87
2022/06/05 01:53:52;;;;;;;11.73;8.07;;;;;;;16.96;64.19;101713.69;4996121;28;20500;-85
2022/06/05 01:56:32;;;;;;;11.45;8.43;;;;;;;16.96;64.20;101710.25;5013812;28;20067;-82
2022/06/05 01:59:06;;;;;;;12.30;9.13;;;;;;;16.81;64.03;101658.31;5013758;28;20386;-84
2022/06/05 02:01:38;;;;;;;12.07;8.43;;;;;;;16.95;64.33;101643.38;5013614;28;20057;-83
2022/06/05 02:04:18;;;;;;;11.98;9.57;;;;;;;16.92;64.25;101623.56;5013447;28;20037;-87
2022/06/05 02:07:01;;;;;;;12.27;9.00;;;;;;;16.91;64.17;101638.41;5013728;28;20022;-80
2022/06/05 02:09:35;;;;;;;12.45;8.32;;;;;;;16.69;64.45;101607.06;5013492;28;20466;-84
2022/06/05 02:12:03;;;;;;;12.35;8.73;;;;;;;16.89;64.22;101644.66;4995933;28;20038;-85
2022/06/05 02:14:29;;;;;;;11.70;9.18;;;;;;;16.86;64.47;101617.03;5013136;28;20474;-85
2022/06/05 02:16:54;;;;;;;14.75;8.85;;;;;;;16.83;64.94;101612.06;5013312;28;20018;-83
2022/06/05 02:19:21;;;;;;;11.73;9.13;;;;;;;16.80;64.98;101595.81;5011654;28;20038;-85
2022/06/05 02:21:47;;;;;;;12.10;8.68;;;;;;;16.56;65.07;101556.75;5013224;28;20462;-86
2022/06/05 02:24:14;;;;;;;10.90;8.23;;;;;;;16.73;64.82;101581.59;5013414;28;20452;-87
2022/06/05 02:26:41;;;;;;;12.43;8.40;;;;;;;16.59;64.63;101570.38;5013010;28;20036;-87
2022/06/05 02:29:21;;;;;;;11.68;9.32;;;;;;;16.64;64.49;101576.09;5012925;28;20375;-86
2022/06/05 02:32:10;;;;;;;12.02;8.50;;;;;;;16.56;64.97;101565.41;5012768;28;20488;-82
2022/06/05 02:34:44;;;;;;;13.27;8.65;;;;;;;16.51;65.13;101554.50;5012987;28;20060;-85
2022/06/05 02:37:21;;;;;;;11.85;8.98;;;;;;;16.46;65.15;101553.19;5012823;28;20558;-87
2022/06/05 02:40:04;;;;;;;12.60;8.32;;;;;;;16.43;65.37;101548.22;5013009;28;20037;-85
2022/06/05 02:42:54;;;;;;;13.43;8.93;;;;;;;16.43;65.54;101556.06;4995666;28;20161;-86
2022/06/05 02:45:32;;;;;;;12.18;8.15;;;;;;;16.42;65.94;101559.56;5012838;28;20029;-87
2022/06/05 02:48:26;;;;;;;11.60;8.50;;;;;;;16.40;66.12;101543.22;5012897;28;20038;-85
2022/06/05 02:51:27;;;;;;;12.90;8.45;;;;;;;16.39;65.68;101541.56;4952435;29;20043;-85
2022/06/05 02:53:58;;;;;;;12.77;8.80;;;;;;;16.24;66.09;101517.53;4952345;28;20057;-86
2022/06/05 02:56:26;;;;;;;12.27;9.10;;;;;;;16.04;65.54;101483.38;4952251;29;20039;-85
2022/06/05 02:58:54;;;;;;;12.45;8.77;;;;;;;16.28;66.32;101519.75;4952249;29;20039;-83
2022/06/05 03:04:07;;;;;;;17.27;9.68;;;;;;;16.24;66.47;101507.91;4954922;28;20054;-87
2022/06/05 03:06:33;;;;;;;12.27;8.80;;;;;;;16.16;66.92;101494.63;4956203;29;20129;-84
2022/06/05 03:08:59;;;;;;;12.98;9.05;;;;;;;16.18;66.90;101492.75;4956285;29;20127;-86
2022/06/05 03:11:24;;;;;;;12.77;8.90;;;;;;;16.16;66.62;101494.63;4955858;29;20130;-84
2022/06/05 03:13:49;;;;;;;16.95;9.82;;;;;;;16.14;67.17;101486.13;4956171;29;20042;-85
2022/06/05 03:16:15;;;;;;;13.25;9.23;;;;;;;15.78;66.88;101428.03;4956135;29;20507;-85
2022/06/05 03:18:40;;;;;;;15.35;10.00;;;;;;;16.10;67.15;101479.47;4956289;29;20031;-85
2022/06/05 03:21:06;;;;;;;16.35;9.85;;;;;;;16.07;67.55;101482.31;4956128;29;20094;-83
2022/06/05 03:23:32;;;;;;;15.20;9.77;;;;;;;16.04;67.65;101474.72;4940064;29;20078;-87
2022/06/05 03:25:58;;;;;;;14.80;9.05;;;;;;;15.83;67.62;101445.06;4956134;29;20038;-87
2022/06/05 03:28:24;;;;;;;14.60;10.32;;;;;;;15.94;67.76;101461.56;5014987;28;20108;-83
2022/06/05 03:30:49;;;;;;;16.00;9.85;;;;;;;15.92;68.00;101454.78;5016715;28;20466;-86
2022/06/05 03:33:37;;;;;;;14.18;10.32;;;;;;;16.03;68.17;101478.28;5102110;23;20065;-86
2022/06/05 03:36:08;;;;;;;14.52;9.95;;;;;;;15.38;68.24;101372.03;5016325;28;20041;-86
2022/06/05 03:38:51;;;;;;;15.07;10.68;;;;;;;15.41;68.60;101379.63;4998854;28;20054;-86
2022/06/05 03:41:20;;;;;;;14.90;10.23;;;;;;;15.21;69.62;101353.31;5016734;28;20113;-83
2022/06/05 03:43:46;;;;;;;16.25;10.73;;;;;;;15.67;69.34;101438.41;5015862;28;20022;-82
2022/06/05 03:46:13;;;;;;;13.77;10.93;;;;;;;15.57;69.77;101429.59;5016313;28;20022;-87
2022/06/05 03:48:39;;;;;;;16.35;10.98;;;;;;;15.57;69.44;101421.78;5015968;28;20088;-85
2022/06/05 03:51:09;;;;;;;14.80;10.13;;;;;;;15.47;69.55;101418.22;5015964;28;20049;-87
2022/06/05 03:53:34;;;;;;;16.47;10.67;;;;;;;15.76;69.65;101465.56;5015741;28;20037;-86
2022/06/05 03:56:00;;;;;;;13.50;9.95;;;;;;;15.67;69.55;101458.41;5015598;28;20052;-87
2022/06/05 03:58:25;;;;;;;15.80;10.63;;;;;;;15.62;69.51;101461.34;4998384;28;20091;-86
2022/06/05 04:00:51;;;;;;;15.07;11.10;;;;;;;15.44;69.60;101441.88;5016033;28;20462;-86
2022/06/05 04:03:17;;;;;;;13.85;10.50;;;;;;;15.68;69.88;101480.91;4998251;28;20153;-82
2022/06/05 04:05:44;;;;;;;16.08;10.52;;;;;;;15.64;70.01;101482.91;5015843;28;20474;-81
2022/06/05 04:08:10;;;;;;;14.35;10.50;;;;;;;15.69;69.84;101493.81;5015497;28;20072;-87
2022/06/05 04:10:37;;;;;;;14.07;10.02;;;;;;;15.60;70.09;101475.41;5014811;28;20478;-87
2022/06/05 04:13:02;;;;;;;16.00;11.00;;;;;;;15.67;70.02;101492.28;5015394;28;20529;-84
2022/06/05 04:15:28;;;;;;;14.88;10.25;;;;;;;15.66;70.31;101494.03;5015270;28;20030;-86
2022/06/05 04:17:53;;;;;;;15.48;11.35;;;;;;;15.68;70.05;101486.94;5015514;28;20429;-87
2022/06/05 04:20:18;;;;;;;16.63;11.68;;;;;;;15.71;69.78;101485.88;5015242;28;20022;-86
2022/06/05 04:22:44;;;;;;;14.82;11.27;;;;;;;15.43;70.19;101442.78;5015512;28;20029;-86
2022/06/05 04:25:13;;;;;;;17.02;10.80;;;;;;;15.68;70.19;101473.09;5015079;28;20034;-87
2022/06/05 04:27:39;;;;;;;16.02;10.57;;;;;;;15.48;70.43;101440.69;5015305;28;20048;-86
2022/06/05 04:30:05;;;;;;;16.50;10.85;;;;;;;15.44;70.55;101432.28;5015526;28;20419;-87
2022/06/05 04:32:31;;;;;;;17.52;11.45;;;;;;;15.28;70.59;101402.31;5014960;28;20061;-87
2022/06/05 04:34:56;;;;;;;15.80;11.10;;;;;;;15.64;70.47;101458.66;4997498;28;20026;-87
2022/06/05 04:37:24;;;;;;;17.77;11.13;;;;;;;15.62;70.72;101458.75;5015092;28;20040;-87
2022/06/05 04:39:50;;;;;;;15.15;10.75;;;;;;;15.08;70.56;101370.78;5015093;28;20112;-87
2022/06/05 04:42:15;;;;;;;16.30;11.32;;;;;;;15.61;70.65;101466.69;5015151;28;20109;-84
2022/06/05 04:44:49;;;;;;;15.88;10.52;;;;;;;15.31;70.90;101421.09;5014769;28;20069;-87
2022/06/05 04:50:22;;;;;;;17.33;11.65;;;;;;;15.66;70.51;101470.59;5015039;28;20032;-87
2022/06/05 04:53:19;;;;;;;17.55;10.80;;;;;;;14.37;70.63;101254.63;5015023;28;20029;-87
2022/06/05 04:55:56;;;;;;;17.45;11.65;;;;;;;14.52;70.93;101287.31;4954319;28;20135;-86
2022/06/05 04:58:37;;;;;;;14.93;10.95;;;;;;;15.53;70.63;101450.75;4954181;28;20038;-85
2022/06/05 05:01:31;;;;;;;18.17;11.77;;;;;;;14.70;70.71;101318.13;4954194;29;20047;-83
2022/06/05 05:04:14;;;;;;;15.02;11.38;;;;;;;14.87;70.70;101344.56;4954292;29;20031;-87
2022/06/05 05:06:54;;;;;;;16.20;11.50;;;;;;;14.27;70.60;101238.03;4954327;28;20043;-87
2022/06/05 05:09:22;;;;;;;14.85;10.80;;;;;;;14.73;70.74;101315.28;4954482;29;20042;-85
2022/06/05 05:11:48;;;;;;;16.02;11.48;;;;;;;15.60;70.85;101454.56;4954305;29;20041;-86
2022/06/05 05:14:13;;;;;;;14.80;11.00;;;;;;;15.60;70.77;101460.63;4953978;29;20035;-88
2022/06/05 05:16:39;;;;;;;17.58;10.85;;;;;;;15.48;70.35;101440.69;4937924;29;20046;-87
2022/06/05 05:19:06;;;;;;;16.58;11.48;;;;;;;15.23;70.34;101404.38;4937928;29;20035;-85
2022/06/05 05:21:31;;;;;;;17.33;11.60;;;;;;;15.37;70.86;101430.25;4938022;29;20054;-88
2022/06/05 05:23:57;;;;;;;18.83;11.07;;;;;;;15.64;70.53;101472.50;4953968;29;20484;-82
2022/06/05 05:26:28;;;;;;;14.55;10.95;;;;;;;15.63;70.33;101465.63;4953210;28;20051;-82
2022/06/05 05:28:55;;;;;;;16.35;11.15;;;;;;;15.66;70.53;101473.22;4953715;29;20031;-84
2022/06/05 05:31:24;;;;;;;17.27;12.00;;;;;;;15.63;71.12;101475.19;4965802;28;20042;-82
2022/06/05 05:33:50;;;;;;;15.38;10.73;;;;;;;15.47;71.03;101431.22;5014256;28;20045;-84
2022/06/05 05:36:21;;;;;;;16.85;11.52;;;;;;;15.70;70.43;101466.81;5014173;28;20029;-83
2022/06/05 05:44:17;;;;;;;16.42;10.80;;;;;;;15.67;69.97;101433.22;5007114;28;20045;-84
2022/06/05 05:46:45;;;;;;;14.88;11.50;;;;;;;15.87;69.83;101455.16;5014068;28;20470;-85
2022/06/05 05:49:12;;;;;;;16.73;11.55;;;;;;;15.79;69.52;101436.66;5014043;28;20030;-83
2022/06/05 05:51:37;;;;;;;19.52;11.55;;;;;;;15.81;69.24;101426.97;5013876;28;20026;-84
2022/06/05 05:54:03;;;;;;;15.05;11.88;;;;;;;15.92;68.87;101428.75;5009901;28;20046;-84
2022/06/05 05:56:29;;;;;;;16.55;11.30;;;;;;;16.10;68.88;101456.00;4994171;28;20113;-81
2022/06/05 05:58:55;;;;;;;16.30;10.82;;;;;;;16.04;68.77;101439.09;4993909;28;20114;-81
2022/06/05 06:01:20;;;;;;;16.33;11.98;;;;;;;15.95;68.75;101405.09;4994604;28;20030;-85
2022/06/05 06:03:49;;;;;;;17.75;11.25;;;;;;;16.28;68.74;101448.56;4994046;28;20027;-85
2022/06/05 06:06:14;;;;;;;15.75;12.07;;;;;;;16.32;68.28;101440.41;4994110;28;20478;-86
2022/06/05 06:08:40;;;;;;;16.02;11.32;;;;;;;16.43;68.24;101438.75;4993987;28;20026;-83
2022/06/05 06:11:08;;;;;;;15.85;10.90;;;;;;;16.48;67.67;101426.16;4994046;28;20030;-86
2022/06/05 06:13:33;;;;;;;14.38;10.65;;;;;;;16.48;67.09;101408.75;4994002;28;20023;-87
2022/06/05 06:15:59;;;;;;;17.55;11.55;;;;;;;16.72;67.20;101429.50;5022764;23;20050;-86
2022/06/05 06:18:25;;;;;;;16.70;12.23;;;;;;;16.68;66.74;101404.59;5013431;28;20049;-85
2022/06/05 06:20:50;;;;;;;14.70;11.20;;;;;;;16.71;66.83;101388.69;5013630;28;20470;-87
2022/06/05 06:23:22;;;;;;;15.45;11.65;;;;;;;17.09;66.63;101421.31;5013423;28;20053;-85
2022/06/05 06:25:50;;;;;;;18.63;11.80;;;;;;;16.98;65.55;101379.59;5013433;28;20036;-85
2022/06/05 06:28:15;;;;;;;15.07;11.15;;;;;;;17.09;65.58;101371.72;4995848;28;20028;-86
2022/06/05 06:30:45;;;;;;;13.30;10.85;;;;;;;17.37;65.22;101401.63;5013066;28;20018;-85
2022/06/05 06:33:10;;;;;;;14.93;11.35;;;;;;;17.55;64.60;101399.28;5013128;28;20034;-86
2022/06/05 06:35:38;;;;;;;14.77;11.23;;;;;;;17.59;64.57;101398.03;5013131;28;20036;-88
2022/06/05 06:38:04;;;;;;;15.63;11.80;;;;;;;17.73;64.25;101398.59;5013052;28;20496;-84
2022/06/05 06:40:30;;;;;;;16.30;11.38;;;;;;;17.68;63.74;101373.78;5012917;28;20026;-85
2022/06/05 06:42:56;;;;;;;14.70;11.43;;;;;;;18.02;63.51;101408.38;5012962;28;20084;-85
2022/06/05 06:45:22;;;;;;;14.50;11.35;;;;;;;17.75;63.15;101333.16;5012737;28;20026;-85
2022/06/05 06:47:48;;;;;;;15.90;11.63;;;;;;;18.31;62.70;101383.16;5012948;28;20524;-84
2022/06/05 06:50:14;;;;;;;15.02;11.27;;;;;;;18.41;62.08;101375.34;5012977;28;20030;-88
2022/06/05 06:52:41;;;;;;;14.98;10.98;;;;;;;18.33;61.29;101326.34;5012896;28;20033;-85
2022/06/05 06:55:08;;;;;;;14.18;11.27;;;;;;;18.71;60.80;101357.94;5012830;28;20152;-84
2022/06/05 06:57:33;;;;;;;14.43;10.98;;;;;;;18.92;60.88;101366.50;4995230;28;20057;-85
2022/06/05 06:59:59;;;;;;;13.43;11.10;;;;;;;18.89;60.26;101361.53;5012953;28;20480;-85
2022/06/05 07:02:24;;;;;;;16.02;11.30;;;;;;;18.33;60.09;101281.06;4994447;28;20041;-84
2022/06/05 07:04:49;;;;;;;15.48;11.00;;;;;;;18.81;60.50;101358.78;5013055;28;20084;-85
2022/06/05 07:07:15;;;;;;;13.73;10.90;;;;;;;18.46;60.43;101286.03;5012920;28;20029;-86
2022/06/05 07:09:40;;;;;;;16.27;11.98;;;;;;;18.92;60.25;101345.56;4995120;28;20025;-86
2022/06/05 07:12:06;;;;;;;13.70;11.23;;;;;;;18.66;59.85;101299.97;4995128;28;20026;-86
2022/06/05 07:14:31;;;;;;;13.30;11.35;;;;;;;19.30;59.83;101354.34;5012841;28;20513;-86
2022/06/05 07:16:56;;;;;;;12.48;10.32;;;;;;;19.44;58.90;101325.09;5012632;28;20052;-83
2022/06/05 07:19:22;;;;;;;13.20;11.13;;;;;;;19.84;58.07;101330.06;5012567;28;20073;-84
2022/06/05 07:21:47;;;;;;;13.65;11.20;;;;;;;20.16;56.97;101329.66;5012987;28;20109;-85
2022/06/05 07:24:13;;;;;;;12.52;10.40;;;;;;;20.40;56.92;101328.28;5012930;28;20413;-84
2022/06/05 07:26:38;;;;;;;15.98;10.82;;;;;;;20.19;56.63;101286.59;5012569;28;20397;-86
2022/06/05 07:29:06;;;;;;;12.07;10.75;;;;;;;20.42;56.16;101305.34;5012810;28;20029;-86
2022/06/05 07:37:49;;;;;;;12.15;10.85;;;;;;;20.09;54.69;101149.47;4952308;29;20042;-84
2022/06/05 07:47:06;;;;;;;14.32;11.20;;;;;;;21.04;54.83;101266.84;4914060;29;20072;-84
2022/06/05 07:49:56;;;;;;;14.73;11.50;;;;;;;21.23;55.44;101315.72;4915241;29;20039;-84
2022/06/05 07:55:21;;;;;;;17.65;12.32;;;;;;;20.81;55.37;101222.72;4917241;29;20489;-84
2022/06/05 07:58:05;;;;;;;12.55;11.27;;;;;;;20.83;56.32;101212.88;4916943;29;20477;-84
2022/06/05 08:00:45;;;;;;;15.80;12.18;;;;;;;20.49;55.16;101139.34;4917146;29;20036;-84
2022/06/05 08:03:10;;;;;;;14.33;12.70;;;;;;;20.49;54.17;101128.84;4917391;29;20032;-85
2022/06/05 08:06:16;;;;;;;13.18;11.80;;;;;;;20.65;54.48;101117.66;4917030;29;20036;-85
2022/06/05 09:12:06;;;;;;;12.07;10.77;;;;;;;24.04;50.71;101270.75;5015133;28;20045;-91
2022/06/05 09:14:44;;;;;;;;;;;;;;;24.12;51.09;101277.81;5015055;28;20040;-89
2022/06/05 09:24:26;;;;;;;14.27;12.82;;;;;;;22.26;52.20;101102.50;5014509;28;20004;-91
2022/06/05 09:30:49;;;;;;;;;;;;;;;23.07;52.88;101267.44;5015009;28;20049;-90
2022/06/05 10:17:48;;;;;;;17.00;15.30;;;;;;;21.28;59.20;101211.88;5033380;28;20037;-85
2022/06/05 10:26:47;;;;;;;17.55;14.65;;;;;;;21.40;59.75;101202.72;5013451;28;20508;-83
2022/06/05 10:29:53;;;;;;;18.13;15.00;;;;;;;21.50;59.51;101201.78;5013365;28;20026;-84
2022/06/05 10:33:03;;;;;;;17.65;15.38;;;;;;;21.62;60.33;101197.88;5013034;28;20026;-83
2022/06/05 10:35:48;;;;;;;17.52;15.68;;;;;;;21.69;60.25;101196.25;5013263;28;20026;-84
2022/06/05 10:38:52;;;;;;;18.35;16.30;;;;;;;21.75;60.05;101195.63;5013158;28;20033;-85
2022/06/05 10:42:12;;;;;;;18.15;16.23;;;;;;;21.09;60.93;101072.88;5013159;28;20029;-85
2022/06/05 10:45:23;;;;;;;;;;;;;;;;;;;;;
2022/06/05 10:47:56;;;;;;;20.88;17.80;;;;;;;22.08;62.82;101206.25;5005167;28;20033;-82
2022/06/05 10:50:45;;;;;;;19.20;17.15;;;;;;;20.92;63.61;101024.75;5013003;28;20030;-85
2022/06/05 10:53:17;;;;;;;18.80;16.63;;;;;;;21.15;64.02;101073.09;5012813;28;20072;-86
2022/06/05 10:55:56;;;;;;;19.20;17.13;;;;;;;21.81;63.61;101188.88;5012900;28;20030;-86
2022/06/05 10:58:39;;;;;;;20.10;18.10;;;;;;;21.65;63.65;101193.13;5013304;28;20030;-84
2022/06/05 11:01:22;;;;;;;20.20;18.17;;;;;;;21.61;65.99;101183.09;5012721;28;20029;-85
2022/06/05 11:04:09;;;;;;;20.85;18.65;;;;;;;21.55;65.69;101194.25;5012566;28;20129;-84
2022/06/05 11:06:44;;;;;;;21.13;19.00;;;;;;;21.39;67.66;101189.75;5012842;28;20034;-85
2022/06/05 11:09:26;;;;;;;20.65;18.65;;;;;;;21.08;67.30;101153.47;5012413;28;20022;-84
2022/06/05 11:15:15;;;;;;;20.65;18.55;;;;;;;20.92;69.80;101190.94;5015059;28;20049;-85
2022/06/05 11:17:55;;;;;;;21.33;19.10;;;;;;;20.67;70.26;101160.31;4997570;28;20382;-87
2022/06/05 11:20:24;;;;;;;20.85;18.95;;;;;;;20.56;71.69;101163.19;5014691;28;20474;-87
2022/06/05 11:23:13;;;;;;;20.58;18.58;;;;;;;20.62;72.13;101186.16;5011874;28;20128;-88
2022/06/05 11:25:52;;;;;;;21.92;19.80;;;;;;;20.51;73.28;101184.59;5015267;28;20029;-88
2022/06/05 11:28:37;;;;;;;21.75;19.42;;;;;;;20.36;71.62;101159.88;5016536;28;20030;-86
2022/06/05 11:31:15;;;;;;;21.20;19.00;;;;;;;20.18;70.73;101157.28;5016599;28;20033;-87
2022/06/05 11:34:05;;;;;;;22.27;20.10;;;;;;;20.14;72.84;101165.56;5016430;28;20038;-85
2022/06/05 11:36:44;;;;;;;22.33;20.00;;;;;;;20.15;72.79;101175.91;4936442;29;20043;-86
2022/06/05 11:39:15;;;;;;;22.40;20.15;;;;;;;20.03;74.19;101182.34;4936506;29;20062;-87
2022/06/05 11:42:02;;;;;;;23.20;20.83;;;;;;;19.93;75.32;101176.34;4936858;29;20039;-83
2022/06/05 11:44:36;;;;;;;23.58;21.02;;;;;;;19.77;77.83;101169.16;4936754;29;20034;-86
2022/06/05 11:47:09;;;;;;;24.23;21.50;;;;;;;19.59;77.96;101137.69;4936734;29;20043;-86
2022/06/05 11:49:35;;;;;;;22.80;20.50;;;;;;;19.69;78.51;101163.84;4937138;29;20531;-88
2022/06/05 11:52:25;;;;;;;24.15;21.65;;;;;;;19.38;78.93;101124.84;4925853;29;20433;-87
2022/06/05 11:55:03;;;;;;;24.67;22.17;;;;;;;19.31;80.34;101126.38;4917819;29;20192;-86
2022/06/05 11:57:34;;;;;;;24.73;22.38;;;;;;;19.45;81.50;101166.97;4917690;29;20060;-83
2022/06/05 12:00:29;;;;;;;25.75;23.02;;;;;;;19.20;82.19;101152.75;4917581;29;20040;-84
2022/06/05 12:03:15;;;;;;;25.75;23.20;;;;;;;19.09;84.16;101166.84;4935466;29;20042;-79
2022/06/05 12:06:14;;;;;;;25.48;22.98;;;;;;;18.94;84.66;101157.81;4936170;29;20031;-82
2022/06/05 12:08:46;;;;;;;26.83;23.88;;;;;;;18.81;87.67;101144.22;4936442;29;20057;-81
2022/06/05 12:11:11;;;;;;;26.08;23.58;;;;;;;18.88;88.60;101142.69;4936078;29;20079;-82
2022/06/05 12:14:01;;;;;;;29.23;26.13;;;;;;;18.80;88.74;101148.63;4966417;28;20045;-82
2022/06/05 12:17:02;;;;;;;29.73;26.73;;;;;;;18.68;89.17;101147.16;4996338;28;20121;-82
2022/06/05 12:19:49;;;;;;;30.15;27.15;;;;;;;18.63;91.10;101146.69;4995947;28;20111;-85
2022/06/05 12:23:04;;;;;;;30.05;26.85;;;;;;;18.39;91.76;101141.94;4996122;28;20181;-82
2022/06/05 12:26:23;;;;;;;34.25;30.73;;;;;;;17.17;93.60;100994.34;4996189;28;20026;-82
2022/06/05 12:28:53;;;;;;;33.65;30.25;;;;;;;17.97;97.40;101133.53;4916706;29;20028;-86
2022/06/05 12:32:01;;;;;;;36.03;32.25;;;;;;;17.93;96.49;101140.84;4916701;29;20128;-83
2022/06/05 12:34:33;;;;;;;41.15;35.30;;;;;;;17.74;100.00;101096.41;4860894;29;20068;-88
2022/06/05 12:37:08;;;;;;;37.13;33.22;;;;;;;17.96;100.00;101130.09;4862454;29;20049;-92
2022/06/05 12:39:43;;;;;;;37.53;33.83;;;;;;;17.94;100.00;101125.97;4861622;29;20037;-85
2022/06/05 12:42:24;;;;;;;34.97;31.48;;;;;;;17.91;100.00;101128.88;4861284;29;20038;-91
2022/06/05 12:44:53;;;;;;;37.38;33.55;;;;;;;17.67;100.00;101092.66;4861257;29;20037;-89
2022/06/05 12:47:37;;;;;;;36.45;32.75;;;;;;;17.89;100.00;101122.94;4862607;29;20186;-90
2022/06/05 12:50:17;;;;;;;36.92;32.92;;;;;;;17.90;100.00;101122.84;4861401;29;20040;-93
2022/06/05 12:52:52;;;;;;;35.95;32.42;;;;;;;17.75;100.00;101101.50;4861095;29;20049;-91
2022/06/05 12:55:24;;;;;;;37.03;33.22;;;;;;;17.94;100.00;101128.59;4860845;29;20030;-85
2022/06/05 12:58:12;;;;;;;36.00;32.42;;;;;;;18.00;100.00;101117.59;4860557;29;20528;-89
2022/06/05 13:00:50;;;;;;;33.00;29.75;;;;;;;18.06;100.00;101117.88;4935626;29;20031;-91
2022/06/05 13:03:15;;;;;;;34.25;30.85;;;;;;;18.08;100.00;101109.06;4936306;29;20539;-86
2022/06/05 13:05:48;;;;;;;34.63;30.90;;;;;;;18.06;100.00;101106.59;4978720;28;20117;-84
2022/06/05 13:08:26;;;;;;;35.15;31.65;;;;;;;18.06;100.00;101099.56;4995637;28;20385;-92
2022/06/05 13:11:23;;;;;;;34.60;31.10;;;;;;;18.04;100.00;101093.66;4995617;28;20018;-90
2022/06/05 13:13:59;;;;;;;33.25;29.90;;;;;;;17.95;100.00;101073.59;4995992;28;20125;-88
2022/06/05 13:16:30;;;;;;;33.97;30.60;;;;;;;18.11;100.00;101098.34;4996149;28;20034;-89
2022/06/05 13:19:20;;;;;;;35.13;31.55;;;;;;;18.19;100.00;101098.44;4995549;28;20049;-89
2022/06/05 13:22:13;;;;;;;33.50;30.15;;;;;;;18.18;100.00;101091.56;4995688;28;20057;-84
2022/06/05 13:25:02;;;;;;;32.80;29.42;;;;;;;18.16;100.00;101090.91;4994850;28;20057;-88
2022/06/05 13:27:45;;;;;;;33.50;30.00;;;;;;;18.11;99.91;101085.28;4994922;28;20015;-86
2022/06/05 13:30:18;;;;;;;33.22;30.02;;;;;;;18.02;100.00;101082.53;4994770;28;20030;-84
2022/06/05 13:33:02;;;;;;;34.13;30.73;;;;;;;17.95;100.00;101078.00;4995142;28;20509;-83
2022/06/05 13:35:48;;;;;;;34.35;30.80;;;;;;;17.93;100.00;101083.34;4994573;28;20038;-86
2022/06/05 13:38:16;;;;;;;35.38;31.77;;;;;;;17.96;100.00;101079.63;4998349;28;20031;-82
2022/06/05 13:40:42;;;;;;;33.60;30.27;;;;;;;17.92;100.00;101076.47;4977590;28;20029;-79
2022/06/05 13:43:19;;;;;;;33.95;30.45;;;;;;;17.93;100.00;101077.31;4994565;28;20030;-90
2022/06/05 13:45:48;;;;;;;35.53;31.95;;;;;;;17.81;100.00;101066.19;4994475;28;20026;-88
2022/06/05 13:48:26;;;;;;;36.67;33.03;;;;;;;17.65;100.00;101056.22;4993894;28;20027;-90
2022/06/05 13:51:28;;;;;;;37.28;33.47;;;;;;;17.70;100.00;101055.88;4994896;28;20026;-92
2022/06/05 13:53:57;;;;;;;35.67;32.15;;;;;;;17.48;100.00;101043.84;4994687;28;20518;-90
2022/06/05 13:56:41;;;;;;;37.03;33.22;;;;;;;17.31;100.00;101019.25;4994886;28;20426;-89
2022/06/05 13:59:18;;;;;;;38.10;34.35;;;;;;;17.55;100.00;101060.63;4993055;28;20421;-91
2022/06/05 14:02:05;;;;;;;36.53;32.92;;;;;;;17.58;100.00;101060.34;4994584;28;20498;-89
2022/06/05 14:04:32;;;;;;;36.97;33.33;;;;;;;17.59;100.00;101059.38;4994537;28;20165;-82
2022/06/05 14:07:03;;;;;;;36.92;33.28;;;;;;;17.26;100.00;100995.31;4994586;28;20113;-86
2022/06/05 14:09:32;;;;;;;;;;;;;;;17.65;99.83;101051.00;4994567;28;20383;-87
2022/06/05 14:11:57;;;;;;;34.65;31.15;;;;;;;17.53;100.00;101044.28;4993833;28;19914;-85
2022/06/05 14:14:42;;;;;;;35.78;32.08;;;;;;;17.53;100.00;101056.50;4993906;28;20466;-85
2022/06/05 14:17:22;;;;;;;37.30;33.40;;;;;;;17.40;100.00;101041.06;4993746;28;20034;-84
2022/06/05 14:19:58;;;;;;;41.42;37.17;;;;;;;17.23;100.00;101010.44;4993917;28;20031;-86